sensor_id;sensor_type;location;lat;lon;timestamp;P1;durP1;ratioP1;P2;durP2;ratioP2
22924;SDS011;11628;51.072;3.712;2023-06-22T00:00:55;10.15;;;6.03;;
22924;SDS011;11628;51.072;3.712;2023-06-22T00:03:21;7.95;;;5.80;;
22924;SDS011;11628;51.072;3.712;2023-06-22T00:05:49;7.70;;;5.97;;
22924;SDS011;11628;51.072;3.712;2023-06-22T00:08:15;8.73;;;6.47;;
22924;SDS011;11628;51.072;3.712;2023-06-22T00:10:42;9.75;;;7.15;;
22924;SDS011;11628;51.072;3.712;2023-06-22T00:13:08;10.80;;;7.07;;
22924;SDS011;11628;51.072;3.712;2023-06-22T00:15:36;13.95;;;8.73;;
22924;SDS011;11628;51.072;3.712;2023-06-22T00:18:03;10.68;;;8.98;;
22924;SDS011;11628;51.072;3.712;2023-06-22T00:20:30;13.55;;;10.15;;
22924;SDS011;11628;51.072;3.712;2023-06-22T00:22:58;12.05;;;8.82;;
22924;SDS011;11628;51.072;3.712;2023-06-22T00:25:24;12.65;;;8.82;;
22924;SDS011;11628;51.072;3.712;2023-06-22T00:27:50;12.32;;;9.98;;
22924;SDS011;11628;51.072;3.712;2023-06-22T00:30:16;13.73;;;11.02;;
22924;SDS011;11628;51.072;3.712;2023-06-22T00:32:43;16.05;;;12.50;;
22924;SDS011;11628;51.072;3.712;2023-06-22T00:35:09;17.15;;;12.43;;
22924;SDS011;11628;51.072;3.712;2023-06-22T00:37:36;18.27;;;12.85;;
22924;SDS011;11628;51.072;3.712;2023-06-22T00:40:05;18.63;;;12.35;;
22924;SDS011;11628;51.072;3.712;2023-06-22T00:42:32;16.55;;;12.77;;
22924;SDS011;11628;51.072;3.712;2023-06-22T00:44:58;14.85;;;11.40;;
22924;SDS011;11628;51.072;3.712;2023-06-22T00:47:24;12.15;;;9.55;;
22924;SDS011;11628;51.072;3.712;2023-06-22T00:49:49;10.43;;;6.72;;
22924;SDS011;11628;51.072;3.712;2023-06-22T00:52:21;8.57;;;5.97;;
22924;SDS011;11628;51.072;3.712;2023-06-22T00:54:52;8.35;;;6.40;;
22924;SDS011;11628;51.072;3.712;2023-06-22T00:57:18;7.75;;;5.00;;
22924;SDS011;11628;51.072;3.712;2023-06-22T00:59:45;6.72;;;4.93;;
22924;SDS011;11628;51.072;3.712;2023-06-22T01:02:12;6.63;;;4.40;;
22924;SDS011;11628;51.072;3.712;2023-06-22T01:04:39;7.00;;;5.40;;
22924;SDS011;11628;51.072;3.712;2023-06-22T01:10:02;7.25;;;4.90;;
22924;SDS011;11628;51.072;3.712;2023-06-22T01:12:32;6.05;;;4.30;;
22924;SDS011;11628;51.072;3.712;2023-06-22T01:15:11;4.65;;;4.10;;
22924;SDS011;11628;51.072;3.712;2023-06-22T01:17:44;4.63;;;3.45;;
22924;SDS011;11628;51.072;3.712;2023-06-22T01:20:10;5.70;;;4.10;;
22924;SDS011;11628;51.072;3.712;2023-06-22T01:23:16;5.25;;;3.83;;
22924;SDS011;11628;51.072;3.712;2023-06-22T01:26:04;5.38;;;4.53;;
22924;SDS011;11628;51.072;3.712;2023-06-22T01:28:42;3.85;;;3.33;;
22924;SDS011;11628;51.072;3.712;2023-06-22T01:31:20;5.35;;;3.88;;
22924;SDS011;11628;51.072;3.712;2023-06-22T01:33:51;6.10;;;3.65;;
22924;SDS011;11628;51.072;3.712;2023-06-22T01:36:20;5.85;;;4.13;;
22924;SDS011;11628;51.072;3.712;2023-06-22T01:38:48;6.28;;;4.50;;
22924;SDS011;11628;51.072;3.712;2023-06-22T01:41:15;5.22;;;4.32;;
22924;SDS011;11628;51.072;3.712;2023-06-22T01:43:46;7.80;;;4.40;;
22924;SDS011;11628;51.072;3.712;2023-06-22T01:46:18;6.35;;;4.20;;
22924;SDS011;11628;51.072;3.712;2023-06-22T01:48:45;6.22;;;4.60;;
22924;SDS011;11628;51.072;3.712;2023-06-22T01:51:12;9.45;;;4.75;;
22924;SDS011;11628;51.072;3.712;2023-06-22T01:53:38;5.32;;;4.10;;
22924;SDS011;11628;51.072;3.712;2023-06-22T01:56:04;5.22;;;4.32;;
22924;SDS011;11628;51.072;3.712;2023-06-22T01:58:33;5.70;;;4.57;;
22924;SDS011;11628;51.072;3.712;2023-06-22T02:01:23;6.00;;;4.30;;
22924;SDS011;11628;51.072;3.712;2023-06-22T02:06:47;10.68;;;7.13;;
22924;SDS011;11628;51.072;3.712;2023-06-22T02:09:21;10.77;;;7.25;;
22924;SDS011;11628;51.072;3.712;2023-06-22T02:15:00;10.57;;;7.55;;
22924;SDS011;11628;51.072;3.712;2023-06-22T02:17:35;8.95;;;7.07;;
22924;SDS011;11628;51.072;3.712;2023-06-22T02:20:32;8.93;;;6.28;;
22924;SDS011;11628;51.072;3.712;2023-06-22T02:26:44;9.10;;;6.10;;
22924;SDS011;11628;51.072;3.712;2023-06-22T02:29:12;10.95;;;6.53;;
22924;SDS011;11628;51.072;3.712;2023-06-22T02:31:38;9.07;;;6.25;;
22924;SDS011;11628;51.072;3.712;2023-06-22T02:34:06;7.47;;;5.60;;
22924;SDS011;11628;51.072;3.712;2023-06-22T02:36:32;7.80;;;5.72;;
22924;SDS011;11628;51.072;3.712;2023-06-22T02:39:01;12.98;;;6.03;;
22924;SDS011;11628;51.072;3.712;2023-06-22T02:41:29;9.52;;;6.20;;
22924;SDS011;11628;51.072;3.712;2023-06-22T02:57:29;11.95;;;7.70;;
22924;SDS011;11628;51.072;3.712;2023-06-22T03:24:17;11.48;;;8.05;;
22924;SDS011;11628;51.072;3.712;2023-06-22T03:26:46;14.40;;;7.97;;
22924;SDS011;11628;51.072;3.712;2023-06-22T03:29:14;12.75;;;7.95;;
22924;SDS011;11628;51.072;3.712;2023-06-22T03:31:44;12.48;;;8.32;;
22924;SDS011;11628;51.072;3.712;2023-06-22T03:34:24;18.15;;;8.73;;
22924;SDS011;11628;51.072;3.712;2023-06-22T03:36:59;12.57;;;8.43;;
22924;SDS011;11628;51.072;3.712;2023-06-22T03:39:45;13.77;;;9.15;;
22924;SDS011;11628;51.072;3.712;2023-06-22T03:42:11;13.13;;;9.07;;
22924;SDS011;11628;51.072;3.712;2023-06-22T03:44:36;12.05;;;7.80;;
22924;SDS011;11628;51.072;3.712;2023-06-22T03:47:05;11.43;;;8.57;;
22924;SDS011;11628;51.072;3.712;2023-06-22T04:20:19;11.25;;;10.10;;
22924;SDS011;11628;51.072;3.712;2023-06-22T04:22:47;11.80;;;9.60;;
22924;SDS011;11628;51.072;3.712;2023-06-22T04:25:16;10.90;;;9.18;;
22924;SDS011;11628;51.072;3.712;2023-06-22T04:27:42;11.55;;;10.32;;
22924;SDS011;11628;51.072;3.712;2023-06-22T04:30:11;14.13;;;10.63;;
22924;SDS011;11628;51.072;3.712;2023-06-22T04:32:41;15.27;;;10.73;;
22924;SDS011;11628;51.072;3.712;2023-06-22T04:41:30;14.15;;;11.10;;
22924;SDS011;11628;51.072;3.712;2023-06-22T04:44:02;15.23;;;11.68;;
22924;SDS011;11628;51.072;3.712;2023-06-22T04:46:48;18.25;;;13.50;;
22924;SDS011;11628;51.072;3.712;2023-06-22T04:50:02;15.68;;;12.10;;
22924;SDS011;11628;51.072;3.712;2023-06-22T05:03:02;14.35;;;12.38;;
22924;SDS011;11628;51.072;3.712;2023-06-22T05:05:28;14.88;;;12.23;;
22924;SDS011;11628;51.072;3.712;2023-06-22T05:07:56;13.68;;;12.10;;
22924;SDS011;11628;51.072;3.712;2023-06-22T05:10:28;14.02;;;11.98;;
22924;SDS011;11628;51.072;3.712;2023-06-22T05:13:05;16.60;;;11.65;;
22924;SDS011;11628;51.072;3.712;2023-06-22T05:15:31;18.27;;;13.65;;
22924;SDS011;11628;51.072;3.712;2023-06-22T05:18:01;17.17;;;12.20;;
22924;SDS011;11628;51.072;3.712;2023-06-22T05:20:30;17.08;;;12.20;;
22924;SDS011;11628;51.072;3.712;2023-06-22T05:22:55;17.20;;;12.50;;
22924;SDS011;11628;51.072;3.712;2023-06-22T05:25:21;18.48;;;12.77;;
22924;SDS011;11628;51.072;3.712;2023-06-22T05:27:47;16.83;;;13.45;;
22924;SDS011;11628;51.072;3.712;2023-06-22T05:30:13;20.35;;;12.82;;
22924;SDS011;11628;51.072;3.712;2023-06-22T05:32:38;16.63;;;12.80;;
22924;SDS011;11628;51.072;3.712;2023-06-22T05:35:04;16.02;;;12.90;;
22924;SDS011;11628;51.072;3.712;2023-06-22T05:37:30;23.90;;;18.90;;
22924;SDS011;11628;51.072;3.712;2023-06-22T05:39:57;21.80;;;14.00;;
22924;SDS011;11628;51.072;3.712;2023-06-22T05:42:23;16.42;;;12.75;;
22924;SDS011;11628;51.072;3.712;2023-06-22T05:44:51;18.60;;;13.85;;
22924;SDS011;11628;51.072;3.712;2023-06-22T05:47:18;20.23;;;14.32;;
22924;SDS011;11628;51.072;3.712;2023-06-22T05:49:44;20.42;;;14.30;;
22924;SDS011;11628;51.072;3.712;2023-06-22T05:52:09;19.85;;;14.80;;
22924;SDS011;11628;51.072;3.712;2023-06-22T05:54:35;23.45;;;16.25;;
22924;SDS011;11628;51.072;3.712;2023-06-22T05:57:00;38.72;;;34.40;;
22924;SDS011;11628;51.072;3.712;2023-06-22T05:59:26;21.55;;;14.45;;
22924;SDS011;11628;51.072;3.712;2023-06-22T06:01:52;23.23;;;14.43;;
22924;SDS011;11628;51.072;3.712;2023-06-22T06:04:18;21.52;;;14.02;;
22924;SDS011;11628;51.072;3.712;2023-06-22T06:06:44;20.90;;;13.35;;
22924;SDS011;11628;51.072;3.712;2023-06-22T06:09:10;24.75;;;13.55;;
22924;SDS011;11628;51.072;3.712;2023-06-22T06:11:36;22.40;;;13.25;;
22924;SDS011;11628;51.072;3.712;2023-06-22T06:14:03;23.70;;;13.63;;
22924;SDS011;11628;51.072;3.712;2023-06-22T06:16:28;35.08;;;22.02;;
22924;SDS011;11628;51.072;3.712;2023-06-22T06:18:54;18.45;;;11.85;;
22924;SDS011;11628;51.072;3.712;2023-06-22T06:21:21;32.88;;;14.50;;
22924;SDS011;11628;51.072;3.712;2023-06-22T06:23:47;21.88;;;13.80;;
22924;SDS011;11628;51.072;3.712;2023-06-22T06:26:13;20.80;;;13.05;;
22924;SDS011;11628;51.072;3.712;2023-06-22T06:28:41;25.63;;;14.75;;
22924;SDS011;11628;51.072;3.712;2023-06-22T06:31:07;23.35;;;15.27;;
22924;SDS011;11628;51.072;3.712;2023-06-22T06:33:33;28.95;;;16.15;;
22924;SDS011;11628;51.072;3.712;2023-06-22T06:35:59;21.75;;;14.38;;
22924;SDS011;11628;51.072;3.712;2023-06-22T06:38:27;17.00;;;10.85;;
22924;SDS011;11628;51.072;3.712;2023-06-22T06:40:53;25.90;;;16.40;;
22924;SDS011;11628;51.072;3.712;2023-06-22T06:43:18;26.85;;;16.33;;
22924;SDS011;11628;51.072;3.712;2023-06-22T06:45:44;26.08;;;16.75;;
22924;SDS011;11628;51.072;3.712;2023-06-22T06:48:10;25.35;;;18.13;;
22924;SDS011;11628;51.072;3.712;2023-06-22T06:50:35;28.15;;;17.42;;
22924;SDS011;11628;51.072;3.712;2023-06-22T06:53:01;25.85;;;17.88;;
22924;SDS011;11628;51.072;3.712;2023-06-22T06:55:27;24.88;;;18.45;;
22924;SDS011;11628;51.072;3.712;2023-06-22T06:57:57;23.95;;;18.10;;
22924;SDS011;11628;51.072;3.712;2023-06-22T07:00:24;25.45;;;17.65;;
22924;SDS011;11628;51.072;3.712;2023-06-22T07:02:50;28.42;;;17.70;;
22924;SDS011;11628;51.072;3.712;2023-06-22T07:05:16;21.13;;;16.52;;
22924;SDS011;11628;51.072;3.712;2023-06-22T07:07:42;22.15;;;18.45;;
22924;SDS011;11628;51.072;3.712;2023-06-22T07:10:08;25.35;;;19.15;;
22924;SDS011;11628;51.072;3.712;2023-06-22T07:12:34;21.30;;;17.33;;
22924;SDS011;11628;51.072;3.712;2023-06-22T07:15:03;23.48;;;18.08;;
22924;SDS011;11628;51.072;3.712;2023-06-22T07:17:32;24.58;;;17.73;;
22924;SDS011;11628;51.072;3.712;2023-06-22T07:19:59;28.52;;;18.38;;
22924;SDS011;11628;51.072;3.712;2023-06-22T07:22:25;25.92;;;17.42;;
22924;SDS011;11628;51.072;3.712;2023-06-22T07:24:51;23.02;;;17.27;;
22924;SDS011;11628;51.072;3.712;2023-06-22T07:27:16;18.35;;;15.98;;
22924;SDS011;11628;51.072;3.712;2023-06-22T07:29:44;21.88;;;16.25;;
22924;SDS011;11628;51.072;3.712;2023-06-22T07:32:11;18.58;;;15.20;;
22924;SDS011;11628;51.072;3.712;2023-06-22T07:34:36;21.17;;;16.85;;
22924;SDS011;11628;51.072;3.712;2023-06-22T07:37:03;19.95;;;15.48;;
22924;SDS011;11628;51.072;3.712;2023-06-22T07:39:30;17.65;;;15.38;;
22924;SDS011;11628;51.072;3.712;2023-06-22T07:41:55;20.70;;;15.35;;
22924;SDS011;11628;51.072;3.712;2023-06-22T07:44:21;22.23;;;16.77;;
22924;SDS011;11628;51.072;3.712;2023-06-22T07:46:47;23.08;;;16.15;;
22924;SDS011;11628;51.072;3.712;2023-06-22T07:49:13;19.95;;;15.45;;
22924;SDS011;11628;51.072;3.712;2023-06-22T07:51:38;22.50;;;17.67;;
22924;SDS011;11628;51.072;3.712;2023-06-22T07:54:04;23.98;;;17.42;;
22924;SDS011;11628;51.072;3.712;2023-06-22T07:56:30;22.45;;;18.38;;
22924;SDS011;11628;51.072;3.712;2023-06-22T07:58:55;23.27;;;18.27;;
22924;SDS011;11628;51.072;3.712;2023-06-22T08:01:23;22.27;;;16.90;;
22924;SDS011;11628;51.072;3.712;2023-06-22T08:03:49;24.48;;;17.60;;
22924;SDS011;11628;51.072;3.712;2023-06-22T08:06:14;21.05;;;16.58;;
22924;SDS011;11628;51.072;3.712;2023-06-22T08:08:41;20.67;;;17.08;;
22924;SDS011;11628;51.072;3.712;2023-06-22T08:11:07;21.65;;;19.35;;
22924;SDS011;11628;51.072;3.712;2023-06-22T08:13:33;26.98;;;22.88;;
22924;SDS011;11628;51.072;3.712;2023-06-22T08:15:59;23.13;;;17.77;;
22924;SDS011;11628;51.072;3.712;2023-06-22T08:18:25;22.60;;;17.20;;
22924;SDS011;11628;51.072;3.712;2023-06-22T08:20:51;20.92;;;16.20;;
22924;SDS011;11628;51.072;3.712;2023-06-22T08:23:17;17.92;;;16.02;;
22924;SDS011;11628;51.072;3.712;2023-06-22T08:25:43;16.25;;;14.40;;
22924;SDS011;11628;51.072;3.712;2023-06-22T08:28:09;17.13;;;14.90;;
22924;SDS011;11628;51.072;3.712;2023-06-22T08:30:35;18.77;;;15.25;;
22924;SDS011;11628;51.072;3.712;2023-06-22T08:33:00;18.95;;;15.55;;
22924;SDS011;11628;51.072;3.712;2023-06-22T08:35:26;20.17;;;15.38;;
22924;SDS011;11628;51.072;3.712;2023-06-22T08:37:52;17.10;;;13.85;;
22924;SDS011;11628;51.072;3.712;2023-06-22T08:40:20;19.17;;;14.57;;
22924;SDS011;11628;51.072;3.712;2023-06-22T08:42:46;19.95;;;15.13;;
22924;SDS011;11628;51.072;3.712;2023-06-22T08:45:13;18.42;;;15.05;;
22924;SDS011;11628;51.072;3.712;2023-06-22T08:47:39;20.90;;;14.50;;
22924;SDS011;11628;51.072;3.712;2023-06-22T08:50:06;18.70;;;16.25;;
22924;SDS011;11628;51.072;3.712;2023-06-22T08:52:34;22.63;;;17.70;;
22924;SDS011;11628;51.072;3.712;2023-06-22T08:55:00;23.02;;;18.20;;
22924;SDS011;11628;51.072;3.712;2023-06-22T08:57:26;22.95;;;19.00;;
22924;SDS011;11628;51.072;3.712;2023-06-22T08:59:52;25.23;;;17.63;;
22924;SDS011;11628;51.072;3.712;2023-06-22T09:02:18;19.40;;;16.90;;
22924;SDS011;11628;51.072;3.712;2023-06-22T09:04:45;22.98;;;17.27;;
22924;SDS011;11628;51.072;3.712;2023-06-22T09:07:11;17.10;;;14.80;;
22924;SDS011;11628;51.072;3.712;2023-06-22T09:09:37;15.77;;;14.18;;
22924;SDS011;11628;51.072;3.712;2023-06-22T09:12:03;24.52;;;15.30;;
22924;SDS011;11628;51.072;3.712;2023-06-22T09:14:29;18.05;;;14.50;;
22924;SDS011;11628;51.072;3.712;2023-06-22T09:16:55;18.08;;;14.25;;
22924;SDS011;11628;51.072;3.712;2023-06-22T09:19:20;21.70;;;16.52;;
22924;SDS011;11628;51.072;3.712;2023-06-22T09:21:46;17.88;;;13.75;;
22924;SDS011;11628;51.072;3.712;2023-06-22T09:24:12;18.02;;;14.68;;
22924;SDS011;11628;51.072;3.712;2023-06-22T09:26:38;20.88;;;15.88;;
22924;SDS011;11628;51.072;3.712;2023-06-22T09:29:05;22.55;;;14.85;;
22924;SDS011;11628;51.072;3.712;2023-06-22T09:31:31;19.45;;;14.15;;
22924;SDS011;11628;51.072;3.712;2023-06-22T09:33:57;20.00;;;13.30;;
22924;SDS011;11628;51.072;3.712;2023-06-22T09:36:23;15.93;;;12.77;;
22924;SDS011;11628;51.072;3.712;2023-06-22T09:38:49;15.60;;;13.40;;
22924;SDS011;11628;51.072;3.712;2023-06-22T09:41:20;15.07;;;13.55;;
22924;SDS011;11628;51.072;3.712;2023-06-22T09:43:46;15.50;;;12.13;;
22924;SDS011;11628;51.072;3.712;2023-06-22T09:46:13;12.65;;;9.75;;
22924;SDS011;11628;51.072;3.712;2023-06-22T09:48:40;12.48;;;11.18;;
22924;SDS011;11628;51.072;3.712;2023-06-22T09:51:06;13.98;;;11.05;;
22924;SDS011;11628;51.072;3.712;2023-06-22T09:53:31;15.77;;;12.25;;
22924;SDS011;11628;51.072;3.712;2023-06-22T09:55:57;13.90;;;11.57;;
22924;SDS011;11628;51.072;3.712;2023-06-22T09:58:23;16.60;;;14.73;;
22924;SDS011;11628;51.072;3.712;2023-06-22T10:00:48;17.67;;;14.57;;
22924;SDS011;11628;51.072;3.712;2023-06-22T10:03:14;20.55;;;14.75;;
22924;SDS011;11628;51.072;3.712;2023-06-22T10:05:40;17.05;;;15.25;;
22924;SDS011;11628;51.072;3.712;2023-06-22T10:08:05;48.22;;;42.95;;
22924;SDS011;11628;51.072;3.712;2023-06-22T10:10:32;34.78;;;31.33;;
22924;SDS011;11628;51.072;3.712;2023-06-22T10:13:02;22.27;;;19.98;;
22924;SDS011;11628;51.072;3.712;2023-06-22T10:15:33;22.45;;;18.95;;
22924;SDS011;11628;51.072;3.712;2023-06-22T10:17:59;21.80;;;19.02;;
22924;SDS011;11628;51.072;3.712;2023-06-22T10:20:24;25.25;;;18.88;;
22924;SDS011;11628;51.072;3.712;2023-06-22T10:22:51;22.05;;;18.98;;
22924;SDS011;11628;51.072;3.712;2023-06-22T10:25:17;23.27;;;19.17;;
22924;SDS011;11628;51.072;3.712;2023-06-22T10:27:43;18.92;;;17.05;;
22924;SDS011;11628;51.072;3.712;2023-06-22T10:30:09;22.63;;;16.95;;
22924;SDS011;11628;51.072;3.712;2023-06-22T10:32:40;20.23;;;17.65;;
22924;SDS011;11628;51.072;3.712;2023-06-22T10:35:10;19.98;;;15.38;;
22924;SDS011;11628;51.072;3.712;2023-06-22T10:37:38;25.60;;;17.92;;
22924;SDS011;11628;51.072;3.712;2023-06-22T10:40:04;23.80;;;16.85;;
22924;SDS011;11628;51.072;3.712;2023-06-22T10:42:30;24.23;;;18.63;;
22924;SDS011;11628;51.072;3.712;2023-06-22T10:44:56;19.73;;;16.35;;
22924;SDS011;11628;51.072;3.712;2023-06-22T10:47:22;21.73;;;18.17;;
22924;SDS011;11628;51.072;3.712;2023-06-22T10:49:47;19.90;;;16.00;;
22924;SDS011;11628;51.072;3.712;2023-06-22T10:52:13;17.00;;;14.25;;
22924;SDS011;11628;51.072;3.712;2023-06-22T10:54:39;18.33;;;14.93;;
22924;SDS011;11628;51.072;3.712;2023-06-22T10:57:06;17.17;;;15.32;;
22924;SDS011;11628;51.072;3.712;2023-06-22T10:59:31;17.23;;;13.73;;
22924;SDS011;11628;51.072;3.712;2023-06-22T11:01:58;26.52;;;16.70;;
22924;SDS011;11628;51.072;3.712;2023-06-22T11:04:24;29.02;;;25.88;;
22924;SDS011;11628;51.072;3.712;2023-06-22T11:06:50;20.13;;;16.85;;
22924;SDS011;11628;51.072;3.712;2023-06-22T11:09:16;20.90;;;17.25;;
22924;SDS011;11628;51.072;3.712;2023-06-22T11:11:45;15.65;;;13.88;;
22924;SDS011;11628;51.072;3.712;2023-06-22T11:14:12;13.55;;;11.93;;
22924;SDS011;11628;51.072;3.712;2023-06-22T11:16:37;13.13;;;11.30;;
22924;SDS011;11628;51.072;3.712;2023-06-22T11:19:04;13.32;;;11.55;;
22924;SDS011;11628;51.072;3.712;2023-06-22T11:21:30;14.05;;;12.27;;
22924;SDS011;11628;51.072;3.712;2023-06-22T11:23:57;12.27;;;10.95;;
22924;SDS011;11628;51.072;3.712;2023-06-22T11:26:23;14.38;;;12.93;;
22924;SDS011;11628;51.072;3.712;2023-06-22T11:28:50;13.55;;;11.30;;
22924;SDS011;11628;51.072;3.712;2023-06-22T11:31:15;9.68;;;8.68;;
22924;SDS011;11628;51.072;3.712;2023-06-22T11:33:41;8.30;;;6.93;;
22924;SDS011;11628;51.072;3.712;2023-06-22T11:36:07;8.07;;;5.90;;
22924;SDS011;11628;51.072;3.712;2023-06-22T11:38:34;6.38;;;5.32;;
22924;SDS011;11628;51.072;3.712;2023-06-22T11:41:01;7.78;;;5.30;;
22924;SDS011;11628;51.072;3.712;2023-06-22T11:43:27;6.57;;;5.38;;
22924;SDS011;11628;51.072;3.712;2023-06-22T11:45:53;7.65;;;6.20;;
22924;SDS011;11628;51.072;3.712;2023-06-22T11:48:21;17.58;;;13.88;;
22924;SDS011;11628;51.072;3.712;2023-06-22T11:50:46;12.40;;;10.05;;
22924;SDS011;11628;51.072;3.712;2023-06-22T11:53:12;10.50;;;7.53;;
22924;SDS011;11628;51.072;3.712;2023-06-22T11:55:41;8.90;;;7.68;;
22924;SDS011;11628;51.072;3.712;2023-06-22T11:58:07;9.27;;;7.75;;
22924;SDS011;11628;51.072;3.712;2023-06-22T12:00:33;9.88;;;7.80;;
22924;SDS011;11628;51.072;3.712;2023-06-22T12:02:59;11.23;;;7.47;;
22924;SDS011;11628;51.072;3.712;2023-06-22T12:05:24;10.13;;;8.27;;
22924;SDS011;11628;51.072;3.712;2023-06-22T12:07:52;12.57;;;8.13;;
22924;SDS011;11628;51.072;3.712;2023-06-22T12:10:18;15.07;;;11.27;;
22924;SDS011;11628;51.072;3.712;2023-06-22T12:12:44;14.25;;;12.05;;
22924;SDS011;11628;51.072;3.712;2023-06-22T12:15:10;27.83;;;13.75;;
22924;SDS011;11628;51.072;3.712;2023-06-22T12:17:36;18.90;;;15.68;;
22924;SDS011;11628;51.072;3.712;2023-06-22T12:20:02;17.95;;;14.05;;
22924;SDS011;11628;51.072;3.712;2023-06-22T12:22:31;16.52;;;13.43;;
22924;SDS011;11628;51.072;3.712;2023-06-22T12:24:57;16.58;;;12.90;;
22924;SDS011;11628;51.072;3.712;2023-06-22T12:27:23;11.93;;;9.90;;
22924;SDS011;11628;51.072;3.712;2023-06-22T12:29:49;13.82;;;10.40;;
22924;SDS011;11628;51.072;3.712;2023-06-22T12:32:15;11.75;;;10.55;;
22924;SDS011;11628;51.072;3.712;2023-06-22T12:34:41;13.20;;;11.68;;
22924;SDS011;11628;51.072;3.712;2023-06-22T12:37:07;13.70;;;11.82;;
22924;SDS011;11628;51.072;3.712;2023-06-22T12:39:33;12.85;;;10.52;;
22924;SDS011;11628;51.072;3.712;2023-06-22T12:41:59;12.60;;;11.10;;
22924;SDS011;11628;51.072;3.712;2023-06-22T12:44:25;15.35;;;10.23;;
22924;SDS011;11628;51.072;3.712;2023-06-22T12:46:51;9.30;;;7.88;;
22924;SDS011;11628;51.072;3.712;2023-06-22T12:49:17;9.48;;;7.50;;
22924;SDS011;11628;51.072;3.712;2023-06-22T12:51:43;13.30;;;8.88;;
22924;SDS011;11628;51.072;3.712;2023-06-22T12:54:09;17.88;;;9.68;;
22924;SDS011;11628;51.072;3.712;2023-06-22T12:56:35;15.10;;;10.73;;
22924;SDS011;11628;51.072;3.712;2023-06-22T12:59:03;15.90;;;11.43;;
22924;SDS011;11628;51.072;3.712;2023-06-22T13:01:29;14.48;;;10.50;;
22924;SDS011;11628;51.072;3.712;2023-06-22T13:03:58;14.57;;;10.23;;
22924;SDS011;11628;51.072;3.712;2023-06-22T13:06:24;17.65;;;10.38;;
22924;SDS011;11628;51.072;3.712;2023-06-22T13:08:50;16.92;;;9.82;;
22924;SDS011;11628;51.072;3.712;2023-06-22T13:11:16;11.45;;;8.85;;
22924;SDS011;11628;51.072;3.712;2023-06-22T13:13:42;12.52;;;8.95;;
22924;SDS011;11628;51.072;3.712;2023-06-22T13:16:08;14.82;;;12.60;;
22924;SDS011;11628;51.072;3.712;2023-06-22T13:18:34;19.15;;;13.07;;
22924;SDS011;11628;51.072;3.712;2023-06-22T13:21:01;14.27;;;12.13;;
22924;SDS011;11628;51.072;3.712;2023-06-22T13:23:29;14.82;;;13.25;;
22924;SDS011;11628;51.072;3.712;2023-06-22T13:25:55;16.75;;;13.50;;
22924;SDS011;11628;51.072;3.712;2023-06-22T13:28:22;14.32;;;12.95;;
22924;SDS011;11628;51.072;3.712;2023-06-22T13:30:48;15.07;;;13.48;;
22924;SDS011;11628;51.072;3.712;2023-06-22T13:33:14;17.23;;;14.95;;
22924;SDS011;11628;51.072;3.712;2023-06-22T13:35:40;16.20;;;14.15;;
22924;SDS011;11628;51.072;3.712;2023-06-22T13:38:07;18.33;;;14.82;;
22924;SDS011;11628;51.072;3.712;2023-06-22T13:40:34;15.45;;;13.85;;
22924;SDS011;11628;51.072;3.712;2023-06-22T13:43:00;15.02;;;13.52;;
22924;SDS011;11628;51.072;3.712;2023-06-22T13:45:26;19.00;;;13.98;;
22924;SDS011;11628;51.072;3.712;2023-06-22T13:47:52;14.82;;;13.35;;
22924;SDS011;11628;51.072;3.712;2023-06-22T13:50:18;13.88;;;12.43;;
22924;SDS011;11628;51.072;3.712;2023-06-22T13:52:43;16.13;;;13.38;;
22924;SDS011;11628;51.072;3.712;2023-06-22T13:55:09;17.33;;;14.05;;
22924;SDS011;11628;51.072;3.712;2023-06-22T13:57:35;20.08;;;16.20;;
22924;SDS011;11628;51.072;3.712;2023-06-22T14:00:03;16.45;;;14.75;;
22924;SDS011;11628;51.072;3.712;2023-06-22T14:02:33;15.30;;;13.75;;
22924;SDS011;11628;51.072;3.712;2023-06-22T14:04:59;14.70;;;13.20;;
22924;SDS011;11628;51.072;3.712;2023-06-22T14:07:25;16.92;;;14.13;;
22924;SDS011;11628;51.072;3.712;2023-06-22T14:09:50;14.68;;;12.95;;
22924;SDS011;11628;51.072;3.712;2023-06-22T14:12:16;15.25;;;13.65;;
22924;SDS011;11628;51.072;3.712;2023-06-22T14:14:45;14.98;;;13.25;;
22924;SDS011;11628;51.072;3.712;2023-06-22T14:17:11;16.77;;;15.18;;
22924;SDS011;11628;51.072;3.712;2023-06-22T14:19:37;20.40;;;18.23;;
22924;SDS011;11628;51.072;3.712;2023-06-22T14:22:02;19.50;;;16.63;;
22924;SDS011;11628;51.072;3.712;2023-06-22T14:24:28;21.50;;;16.85;;
22924;SDS011;11628;51.072;3.712;2023-06-22T14:26:54;27.58;;;24.63;;
22924;SDS011;11628;51.072;3.712;2023-06-22T14:29:21;26.88;;;24.02;;
22924;SDS011;11628;51.072;3.712;2023-06-22T14:31:47;22.23;;;19.88;;
22924;SDS011;11628;51.072;3.712;2023-06-22T14:34:14;24.80;;;21.48;;
22924;SDS011;11628;51.072;3.712;2023-06-22T14:36:40;30.27;;;25.17;;
22924;SDS011;11628;51.072;3.712;2023-06-22T14:39:07;27.73;;;24.80;;
22924;SDS011;11628;51.072;3.712;2023-06-22T14:41:33;26.88;;;24.13;;
22924;SDS011;11628;51.072;3.712;2023-06-22T14:43:59;27.88;;;24.92;;
22924;SDS011;11628;51.072;3.712;2023-06-22T14:46:25;29.45;;;25.52;;
22924;SDS011;11628;51.072;3.712;2023-06-22T14:48:50;29.98;;;25.88;;
22924;SDS011;11628;51.072;3.712;2023-06-22T14:51:16;29.55;;;26.60;;
22924;SDS011;11628;51.072;3.712;2023-06-22T14:53:43;29.30;;;26.38;;
22924;SDS011;11628;51.072;3.712;2023-06-22T14:56:10;30.40;;;27.20;;
22924;SDS011;11628;51.072;3.712;2023-06-22T14:58:37;32.00;;;27.33;;
22924;SDS011;11628;51.072;3.712;2023-06-22T15:01:04;33.13;;;29.65;;
22924;SDS011;11628;51.072;3.712;2023-06-22T15:03:33;36.65;;;32.78;;
22924;SDS011;11628;51.072;3.712;2023-06-22T15:06:00;40.33;;;34.72;;
22924;SDS011;11628;51.072;3.712;2023-06-22T15:08:27;35.97;;;32.08;;
22924;SDS011;11628;51.072;3.712;2023-06-22T15:10:53;37.45;;;33.63;;
22924;SDS011;11628;51.072;3.712;2023-06-22T15:13:20;36.90;;;33.15;;
22924;SDS011;11628;51.072;3.712;2023-06-22T15:15:47;38.45;;;34.28;;
22924;SDS011;11628;51.072;3.712;2023-06-22T15:18:13;42.55;;;38.13;;
22924;SDS011;11628;51.072;3.712;2023-06-22T15:20:40;41.83;;;37.45;;
22924;SDS011;11628;51.072;3.712;2023-06-22T15:23:06;39.40;;;35.28;;
22924;SDS011;11628;51.072;3.712;2023-06-22T15:25:33;39.90;;;35.50;;
22924;SDS011;11628;51.072;3.712;2023-06-22T15:27:59;37.55;;;33.88;;
22924;SDS011;11628;51.072;3.712;2023-06-22T15:30:25;36.42;;;32.65;;
22924;SDS011;11628;51.072;3.712;2023-06-22T15:32:50;37.33;;;33.50;;
22924;SDS011;11628;51.072;3.712;2023-06-22T15:35:16;37.42;;;33.67;;
22924;SDS011;11628;51.072;3.712;2023-06-22T15:37:43;37.67;;;33.97;;
22924;SDS011;11628;51.072;3.712;2023-06-22T15:40:10;38.60;;;34.70;;
22924;SDS011;11628;51.072;3.712;2023-06-22T15:42:36;38.28;;;34.55;;
22924;SDS011;11628;51.072;3.712;2023-06-22T15:45:02;38.03;;;34.40;;
22924;SDS011;11628;51.072;3.712;2023-06-22T15:47:29;38.72;;;35.22;;
22924;SDS011;11628;51.072;3.712;2023-06-22T15:49:55;41.58;;;37.22;;
22924;SDS011;11628;51.072;3.712;2023-06-22T15:52:20;41.20;;;37.15;;
22924;SDS011;11628;51.072;3.712;2023-06-22T15:54:47;40.70;;;36.55;;
22924;SDS011;11628;51.072;3.712;2023-06-22T15:57:12;41.53;;;37.45;;
22924;SDS011;11628;51.072;3.712;2023-06-22T15:59:39;42.08;;;37.95;;
22924;SDS011;11628;51.072;3.712;2023-06-22T16:02:05;45.53;;;41.15;;
22924;SDS011;11628;51.072;3.712;2023-06-22T16:04:31;44.22;;;40.03;;